createdAt,value
2023-01-06T00:00:26.756Z,33.70
2023-01-06T00:01:29.062Z,31.93
2023-01-06T00:02:30.622Z,37.00
2023-01-06T00:03:32.418Z,36.60
2023-01-06T00:04:34.043Z,29.57
2023-01-06T00:05:35.894Z,28.53
2023-01-06T00:06:37.477Z,30.70
2023-01-06T00:07:39.370Z,29.90
2023-01-06T00:08:40.897Z,37.67
2023-01-06T00:09:42.451Z,31.07
2023-01-06T00:10:43.973Z,33.20
2023-01-06T00:11:45.561Z,31.63
2023-01-06T00:12:48.775Z,37.90
2023-01-06T00:13:50.452Z,31.13
2023-01-06T00:14:52.446Z,37.83
2023-01-06T00:15:55.530Z,34.67
2023-01-06T00:16:57.169Z,28.00
2023-01-06T00:17:58.683Z,34.73
2023-01-06T00:19:00.527Z,33.97
2023-01-06T00:20:02.687Z,34.50
2023-01-06T00:21:05.027Z,35.73
2023-01-06T00:22:06.537Z,34.37
2023-01-06T00:23:08.063Z,35.50
2023-01-06T00:24:09.925Z,35.27
2023-01-06T00:25:11.557Z,33.60
2023-01-06T00:26:13.134Z,35.83
2023-01-06T00:27:14.842Z,36.00
2023-01-06T00:28:16.509Z,34.67
2023-01-06T00:29:18.059Z,35.20
2023-01-06T00:30:19.607Z,35.57
2023-01-06T00:31:21.325Z,34.40
2023-01-06T00:32:23.020Z,34.83
2023-01-06T00:33:24.672Z,34.70
2023-01-06T00:34:26.382Z,29.93
2023-01-06T00:35:27.915Z,33.67
2023-01-06T00:36:29.550Z,31.97
2023-01-06T00:37:31.211Z,32.17
2023-01-06T00:38:32.896Z,33.87
2023-01-06T00:39:34.452Z,33.87
2023-01-06T00:40:37.192Z,34.70
2023-01-06T00:41:57.939Z,33.53
2023-01-06T00:42:59.550Z,30.40
2023-01-06T00:44:02.211Z,29.93
2023-01-06T00:45:04.109Z,32.00
2023-01-06T00:46:05.672Z,34.20
2023-01-06T00:47:10.232Z,33.40
2023-01-06T00:48:11.860Z,34.50
2023-01-06T00:49:13.353Z,33.07
2023-01-06T00:50:14.919Z,34.13
2023-01-06T00:51:16.521Z,31.90
2023-01-06T00:52:18.080Z,34.30
2023-01-06T00:53:19.657Z,33.03
2023-01-06T00:54:21.643Z,32.63
2023-01-06T00:55:23.310Z,32.30
2023-01-06T00:56:24.997Z,29.97
2023-01-06T00:57:26.626Z,27.90
2023-01-06T00:58:31.713Z,29.00
2023-01-06T00:59:33.845Z,27.30
2023-01-06T01:00:35.612Z,29.90
2023-01-06T01:01:37.988Z,28.20
2023-01-06T01:02:39.751Z,31.07
2023-01-06T01:03:41.406Z,32.53
2023-01-06T01:04:42.976Z,28.60
2023-01-06T01:05:44.504Z,31.57
2023-01-06T01:06:47.431Z,33.40
2023-01-06T01:07:48.989Z,31.73
2023-01-06T01:08:55.598Z,27.83
2023-01-06T01:09:57.160Z,26.43
2023-01-06T01:11:07.724Z,28.20
2023-01-06T01:12:11.727Z,27.87
2023-01-06T01:13:13.290Z,26.87
2023-01-06T01:14:17.442Z,29.07
2023-01-06T01:15:18.944Z,31.50
2023-01-06T01:16:20.462Z,27.90
2023-01-06T01:17:31.368Z,29.73
2023-01-06T01:18:33.739Z,32.20
2023-01-06T01:19:35.896Z,31.70
2023-01-06T01:20:37.529Z,32.67
2023-01-06T01:21:39.765Z,33.13
2023-01-06T01:22:41.263Z,30.73
2023-01-06T01:23:42.795Z,27.20
2023-01-06T01:24:44.329Z,27.30
2023-01-06T01:25:45.948Z,31.50
2023-01-06T01:26:47.617Z,27.20
2023-01-06T01:27:49.117Z,29.07
2023-01-06T01:28:50.669Z,29.97
2023-01-06T01:29:52.183Z,30.63
2023-01-06T01:31:00.121Z,30.80
2023-01-06T01:32:01.912Z,30.47
2023-01-06T01:33:03.561Z,31.50
2023-01-06T01:34:05.386Z,32.27
2023-01-06T01:35:07.136Z,28.93
2023-01-06T01:36:10.777Z,29.27
2023-01-06T01:37:12.389Z,29.63
2023-01-06T01:38:13.927Z,28.67
2023-01-06T01:39:17.231Z,28.87
2023-01-06T01:40:18.794Z,29.83
2023-01-06T01:41:22.796Z,31.03
2023-01-06T01:42:24.359Z,28.43
2023-01-06T01:43:25.941Z,27.53
2023-01-06T01:44:52.050Z,26.07
2023-01-06T01:45:55.897Z,26.60
2023-01-06T01:46:57.755Z,25.47
2023-01-06T01:48:07.475Z,24.43
2023-01-06T01:49:18.149Z,26.07
2023-01-06T01:50:53.722Z,25.10
2023-01-06T01:51:57.269Z,24.57
2023-01-06T01:53:06.145Z,27.67
2023-01-06T01:54:11.256Z,25.63
2023-01-06T01:55:14.433Z,26.17
2023-01-06T01:56:21.236Z,31.17
2023-01-06T01:57:28.063Z,27.73
2023-01-06T01:58:48.963Z,26.73
2023-01-06T01:59:51.535Z,27.40
2023-01-06T02:00:53.311Z,24.60
2023-01-06T02:01:55.609Z,25.47
2023-01-06T02:02:58.390Z,26.43
2023-01-06T02:04:02.081Z,27.50
2023-01-06T02:05:04.103Z,26.87
2023-01-06T02:06:14.241Z,25.77
2023-01-06T02:07:15.769Z,27.03
2023-01-06T02:08:35.270Z,27.67
2023-01-06T02:09:51.867Z,25.80
2023-01-06T02:10:53.459Z,24.57
2023-01-06T02:11:56.803Z,24.47
2023-01-06T02:12:59.813Z,24.83
2023-01-06T02:14:11.239Z,24.40
2023-01-06T02:15:26.682Z,29.20
2023-01-06T02:16:43.457Z,27.23
2023-01-06T02:17:54.074Z,24.77
2023-01-06T02:19:07.717Z,24.67
2023-01-06T02:20:18.429Z,24.83
2023-01-06T02:21:35.804Z,24.50
2023-01-06T02:23:02.188Z,27.23
2023-01-06T02:24:44.412Z,26.47
2023-01-06T02:26:21.287Z,28.73
2023-01-06T02:27:57.366Z,26.70
2023-01-06T02:29:14.163Z,25.73
2023-01-06T02:30:43.251Z,24.50
2023-01-06T02:32:16.726Z,25.77
2023-01-06T02:33:42.794Z,26.90
2023-01-06T02:34:47.288Z,24.23
2023-01-06T02:36:24.966Z,24.93
2023-01-06T02:37:47.889Z,27.80
2023-01-06T02:38:56.601Z,24.60
2023-01-06T02:40:01.129Z,25.27
2023-01-06T02:41:25.602Z,24.33
2023-01-06T02:42:31.000Z,23.40
2023-01-06T02:43:44.140Z,24.07
2023-01-06T02:44:57.269Z,22.93
2023-01-06T02:46:07.665Z,24.70
2023-01-06T02:47:19.498Z,25.70
2023-01-06T02:48:33.744Z,26.37
2023-01-06T02:50:19.692Z,25.90
2023-01-06T02:51:43.343Z,27.27
2023-01-06T02:53:17.053Z,27.67
2023-01-06T02:54:42.423Z,26.90
2023-01-06T02:55:47.828Z,25.97
2023-01-06T02:56:55.749Z,24.90
2023-01-06T02:58:26.619Z,25.10
2023-01-06T02:59:36.307Z,25.00
2023-01-06T03:00:46.290Z,22.27
2023-01-06T03:01:52.854Z,22.37
2023-01-06T03:03:10.294Z,21.60
2023-01-06T03:04:20.936Z,21.47
2023-01-06T03:05:24.700Z,20.30
2023-01-06T03:06:29.852Z,19.27
2023-01-06T03:07:32.921Z,17.30
2023-01-06T03:08:36.242Z,18.73
2023-01-06T03:09:38.738Z,17.13
2023-01-06T03:10:43.168Z,19.17
2023-01-06T03:11:50.185Z,22.10
2023-01-06T03:12:56.542Z,24.50
2023-01-06T03:14:10.197Z,21.07
2023-01-06T03:15:12.101Z,20.17
2023-01-06T03:16:14.363Z,20.73
2023-01-06T03:17:15.963Z,21.40
2023-01-06T03:18:17.928Z,21.30
2023-01-06T03:19:19.520Z,26.10
2023-01-06T03:20:21.247Z,24.73
2023-01-06T03:21:26.980Z,22.63
2023-01-06T03:22:28.721Z,22.80
2023-01-06T03:23:30.363Z,19.43
2023-01-06T03:24:32.095Z,20.73
2023-01-06T03:25:33.622Z,23.73
2023-01-06T03:26:36.543Z,23.60
2023-01-06T03:27:38.065Z,27.03
2023-01-06T03:28:39.762Z,28.77
2023-01-06T03:29:41.491Z,28.63
2023-01-06T03:31:30.428Z,22.83
2023-01-06T03:32:40.177Z,23.40
2023-01-06T03:34:09.167Z,23.57
2023-01-06T03:35:37.540Z,22.70
2023-01-06T03:37:00.670Z,23.87
2023-01-06T03:38:25.536Z,24.10
2023-01-06T03:39:39.102Z,23.17
2023-01-06T03:40:44.216Z,24.27
2023-01-06T03:42:27.445Z,24.00
2023-01-06T03:43:47.002Z,23.43
2023-01-06T03:45:23.772Z,21.70
2023-01-06T03:46:38.564Z,23.03
2023-01-06T03:47:56.816Z,23.10
2023-01-06T03:49:07.997Z,23.90
2023-01-06T03:50:25.822Z,23.87
2023-01-06T03:51:31.124Z,26.23
2023-01-06T03:52:39.614Z,22.77
2023-01-06T03:53:56.409Z,24.97
2023-01-06T03:55:05.417Z,25.33
2023-01-06T03:56:19.239Z,25.27
2023-01-06T03:57:53.187Z,21.50
2023-01-06T03:58:58.852Z,21.87
2023-01-06T04:00:26.450Z,22.83
2023-01-06T04:01:29.719Z,23.17
2023-01-06T04:02:31.923Z,25.00
2023-01-06T04:03:34.413Z,26.50
2023-01-06T04:04:37.129Z,25.80
2023-01-06T04:05:38.732Z,24.27
2023-01-06T04:06:40.317Z,24.73
2023-01-06T04:07:43.799Z,25.87
2023-01-06T04:08:45.410Z,25.83
2023-01-06T04:09:46.962Z,24.43
2023-01-06T04:10:48.557Z,21.23
2023-01-06T04:12:08.667Z,22.93
2023-01-06T04:13:10.248Z,21.63
2023-01-06T04:14:11.963Z,24.70
2023-01-06T04:15:16.576Z,18.27
2023-01-06T04:16:18.153Z,21.07
2023-01-06T04:17:19.791Z,20.20
2023-01-06T04:18:21.327Z,19.87
2023-01-06T04:19:22.833Z,19.93
2023-01-06T04:20:28.025Z,20.20
2023-01-06T04:21:29.601Z,24.23
2023-01-06T04:22:31.239Z,19.67
2023-01-06T04:23:33.093Z,19.33
2023-01-06T04:24:34.658Z,22.03
2023-01-06T04:25:36.775Z,20.50
2023-01-06T04:26:38.332Z,19.97
2023-01-06T04:27:39.996Z,20.27
2023-01-06T04:28:41.576Z,20.17
2023-01-06T04:29:43.239Z,20.73
2023-01-06T04:30:44.818Z,19.97
2023-01-06T04:31:46.361Z,19.27
2023-01-06T04:32:48.012Z,20.10
2023-01-06T04:33:49.504Z,22.27
2023-01-06T04:34:51.368Z,21.77
2023-01-06T04:35:53.976Z,21.57
2023-01-06T04:36:57.211Z,21.93
2023-01-06T04:38:02.231Z,20.67
2023-01-06T04:39:04.063Z,19.33
2023-01-06T04:40:07.754Z,19.77
2023-01-06T04:41:09.343Z,21.57
2023-01-06T04:42:10.968Z,20.70
2023-01-06T04:43:18.938Z,21.07
2023-01-06T04:44:21.026Z,21.30
2023-01-06T04:45:22.944Z,21.60
2023-01-06T04:46:24.546Z,22.73
2023-01-06T04:47:26.103Z,21.50
2023-01-06T04:48:27.677Z,23.27
2023-01-06T04:49:29.268Z,21.80
2023-01-06T04:50:30.823Z,22.13
2023-01-06T04:51:32.368Z,21.93
2023-01-06T04:52:33.945Z,22.43
2023-01-06T04:53:37.565Z,21.53
2023-01-06T04:54:39.085Z,21.23
2023-01-06T04:55:41.929Z,22.23
2023-01-06T04:56:43.525Z,21.87
2023-01-06T04:57:45.141Z,22.40
2023-01-06T04:58:46.771Z,23.20
2023-01-06T04:59:48.299Z,23.07
2023-01-06T05:00:49.858Z,22.90
2023-01-06T05:01:51.633Z,23.40
2023-01-06T05:02:53.265Z,24.07
2023-01-06T05:03:55.028Z,23.57
2023-01-06T05:04:56.730Z,24.03
2023-01-06T05:06:09.833Z,23.67
2023-01-06T05:07:11.397Z,23.23
2023-01-06T05:08:12.929Z,24.03
2023-01-06T05:09:14.494Z,21.43
2023-01-06T05:10:16.121Z,21.87
2023-01-06T05:11:20.724Z,22.43
2023-01-06T05:12:22.531Z,21.03
2023-01-06T05:13:24.079Z,21.63
2023-01-06T05:14:25.607Z,20.83
2023-01-06T05:15:27.177Z,21.63
2023-01-06T05:16:33.857Z,17.60
2023-01-06T05:17:35.448Z,25.87
2023-01-06T05:18:37.141Z,21.83
2023-01-06T05:19:38.705Z,20.63
2023-01-06T05:20:40.271Z,21.43
2023-01-06T05:21:41.803Z,21.50
2023-01-06T05:22:43.451Z,21.10
2023-01-06T05:23:46.040Z,20.30
2023-01-06T05:24:47.700Z,21.37
2023-01-06T05:25:52.586Z,22.07
2023-01-06T05:26:55.052Z,24.40
2023-01-06T05:27:56.619Z,22.87
2023-01-06T05:28:58.202Z,25.97
2023-01-06T05:29:59.770Z,24.20
2023-01-06T05:31:02.721Z,25.00
2023-01-06T05:32:05.911Z,25.30
2023-01-06T05:33:07.630Z,28.73
2023-01-06T05:34:11.194Z,27.27
2023-01-06T05:35:12.827Z,29.60
2023-01-06T05:36:16.790Z,29.13
2023-01-06T05:37:18.388Z,26.97
2023-01-06T05:38:20.079Z,28.90
2023-01-06T05:39:21.668Z,27.53
2023-01-06T05:40:23.923Z,29.20
2023-01-06T05:41:25.452Z,28.97
2023-01-06T05:42:27.005Z,25.97
2023-01-06T05:43:29.410Z,24.63
2023-01-06T05:44:31.620Z,23.17
2023-01-06T05:45:33.223Z,21.93
2023-01-06T05:46:34.926Z,22.40
2023-01-06T05:47:36.553Z,23.57
2023-01-06T05:48:39.256Z,24.90
2023-01-06T05:49:40.872Z,24.23
2023-01-06T05:50:42.624Z,24.17
2023-01-06T05:51:44.158Z,23.73
2023-01-06T05:52:45.699Z,24.00
2023-01-06T05:53:48.725Z,25.33
2023-01-06T05:54:50.268Z,25.93
2023-01-06T05:55:51.825Z,27.67
2023-01-06T05:56:53.367Z,25.87
2023-01-06T05:57:54.876Z,28.20
2023-01-06T05:58:56.436Z,27.37
2023-01-06T05:59:57.997Z,25.83
2023-01-06T06:01:04.122Z,27.90
2023-01-06T06:02:05.850Z,27.33
2023-01-06T06:03:07.406Z,25.90
2023-01-06T06:04:09.051Z,26.03
2023-01-06T06:05:10.995Z,26.30
2023-01-06T06:06:12.553Z,27.43
2023-01-06T06:07:14.134Z,29.30
2023-01-06T06:08:16.107Z,27.20
2023-01-06T06:09:17.670Z,24.10
2023-01-06T06:10:19.194Z,25.57
2023-01-06T06:11:22.348Z,24.33
2023-01-06T06:12:24.002Z,21.37
2023-01-06T06:13:25.572Z,21.57
2023-01-06T06:14:27.306Z,22.83
2023-01-06T06:15:28.858Z,20.33
2023-01-06T06:16:30.533Z,21.40
2023-01-06T06:17:32.106Z,20.00
2023-01-06T06:18:34.076Z,19.33
2023-01-06T06:19:35.571Z,18.93
2023-01-06T06:20:37.140Z,16.60
2023-01-06T06:21:39.199Z,18.67
2023-01-06T06:22:40.705Z,18.10
2023-01-06T06:23:43.176Z,16.47
2023-01-06T06:24:44.957Z,18.23
2023-01-06T06:25:50.261Z,16.47
2023-01-06T06:26:51.917Z,16.83
2023-01-06T06:27:57.479Z,16.70
2023-01-06T06:28:59.037Z,16.87
2023-01-06T06:30:00.603Z,19.00
2023-01-06T06:31:06.671Z,17.67
2023-01-06T06:32:08.267Z,20.00
2023-01-06T06:33:09.791Z,22.33
2023-01-06T06:34:13.123Z,23.67
2023-01-06T06:35:14.784Z,25.43
2023-01-06T06:36:16.489Z,25.10
2023-01-06T06:37:18.088Z,25.07
2023-01-06T06:38:19.648Z,25.30
2023-01-06T06:39:22.107Z,26.50
2023-01-06T06:40:23.827Z,26.87
2023-01-06T06:41:25.889Z,25.07
2023-01-06T06:42:27.453Z,27.30
2023-01-06T06:43:29.292Z,26.33
2023-01-06T06:44:30.815Z,26.27
2023-01-06T06:45:32.397Z,25.13
2023-01-06T06:46:33.939Z,24.13
2023-01-06T06:47:35.561Z,23.80
2023-01-06T06:48:37.542Z,24.60
2023-01-06T06:49:39.125Z,21.87
2023-01-06T06:50:40.660Z,23.33
2023-01-06T06:51:42.279Z,25.43
2023-01-06T06:52:43.869Z,25.10
2023-01-06T06:53:45.991Z,23.07
2023-01-06T06:54:47.482Z,25.20
2023-01-06T06:55:49.015Z,24.27
2023-01-06T06:56:50.591Z,24.93
2023-01-06T06:57:52.113Z,23.13
2023-01-06T06:58:53.699Z,24.67
2023-01-06T06:59:57.840Z,25.70
2023-01-06T07:01:04.284Z,25.13
2023-01-06T07:02:06.477Z,24.80
2023-01-06T07:03:08.073Z,26.47
2023-01-06T07:04:09.696Z,27.63
2023-01-06T07:05:11.224Z,27.40
2023-01-06T07:06:16.730Z,32.10
2023-01-06T07:07:18.343Z,32.13
2023-01-06T07:08:20.262Z,34.80
2023-01-06T07:09:21.792Z,34.53
2023-01-06T07:10:23.301Z,36.93
2023-01-06T07:11:24.831Z,36.53
2023-01-06T07:12:26.339Z,38.30
2023-01-06T07:13:28.324Z,34.80
2023-01-06T07:14:29.895Z,35.53
2023-01-06T07:15:31.565Z,33.73
2023-01-06T07:16:33.114Z,35.00
2023-01-06T07:17:34.714Z,32.20
2023-01-06T07:18:36.981Z,32.67
2023-01-06T07:19:38.496Z,34.40
2023-01-06T07:20:40.089Z,36.60
2023-01-06T07:21:41.779Z,38.50
2023-01-06T07:22:43.308Z,37.97
2023-01-06T07:23:44.827Z,39.73
2023-01-06T07:24:46.488Z,46.13
2023-01-06T07:26:01.590Z,49.37
2023-01-06T07:27:03.170Z,47.70
2023-01-06T07:28:05.646Z,47.50
2023-01-06T07:29:07.209Z,45.50
2023-01-06T07:30:09.240Z,47.67
2023-01-06T07:31:10.985Z,45.67
2023-01-06T07:32:12.568Z,46.77
2023-01-06T07:33:14.199Z,47.63
2023-01-06T07:34:15.754Z,44.93
2023-01-06T07:35:18.018Z,44.83
2023-01-06T07:36:19.541Z,43.43
2023-01-06T07:37:21.073Z,41.07
2023-01-06T07:38:23.511Z,43.60
2023-01-06T07:39:25.094Z,41.93
2023-01-06T07:40:26.605Z,41.67
2023-01-06T07:41:28.113Z,43.97
2023-01-06T07:42:29.641Z,44.47
2023-01-06T07:43:31.196Z,44.17
2023-01-06T07:44:32.802Z,44.93
2023-01-06T07:45:35.122Z,46.83
2023-01-06T07:46:36.689Z,47.40
2023-01-06T07:47:38.281Z,49.03
2023-01-06T07:48:39.850Z,49.33
2023-01-06T07:49:41.432Z,50.47
2023-01-06T07:50:43.005Z,47.60
2023-01-06T07:51:44.575Z,46.17
2023-01-06T07:52:46.201Z,43.83
2023-01-06T07:53:47.754Z,46.90
2023-01-06T07:54:49.303Z,43.87
2023-01-06T07:55:52.652Z,46.60
2023-01-06T07:56:54.224Z,45.67
2023-01-06T07:57:55.772Z,46.33
2023-01-06T07:58:57.734Z,45.97
2023-01-06T07:59:59.321Z,43.70
2023-01-06T08:01:05.948Z,42.73
2023-01-06T08:02:07.634Z,41.63
2023-01-06T08:03:11.631Z,37.07
2023-01-06T08:04:13.270Z,40.27
2023-01-06T08:05:14.849Z,43.70
2023-01-06T08:06:16.401Z,42.73
2023-01-06T08:07:18.239Z,39.43
2023-01-06T08:08:19.807Z,37.47
2023-01-06T08:09:21.351Z,35.10
2023-01-06T08:10:22.900Z,25.50
2023-01-06T08:11:24.553Z,25.67
2023-01-06T08:12:26.067Z,23.10
2023-01-06T08:13:27.604Z,23.20
2023-01-06T08:14:29.173Z,24.13
2023-01-06T08:15:30.778Z,26.67
2023-01-06T08:16:32.286Z,26.23
2023-01-06T08:17:33.821Z,23.67
2023-01-06T08:18:36.158Z,25.10
2023-01-06T08:19:37.742Z,25.33
2023-01-06T08:20:39.366Z,25.00
2023-01-06T08:21:40.878Z,25.40
2023-01-06T08:22:42.454Z,26.70
2023-01-06T08:23:43.998Z,26.47
2023-01-06T08:24:45.585Z,29.37
2023-01-06T08:25:47.122Z,29.37
2023-01-06T08:26:48.620Z,31.40
2023-01-06T08:27:50.227Z,33.23
2023-01-06T08:28:53.565Z,41.40
2023-01-06T08:29:55.471Z,43.53
2023-01-06T08:30:57.520Z,46.63
2023-01-06T08:32:09.806Z,47.67
2023-01-06T08:33:13.388Z,43.43
2023-01-06T08:34:15.089Z,41.20
2023-01-06T08:35:16.956Z,40.17
2023-01-06T08:36:20.743Z,40.77
2023-01-06T08:37:22.286Z,40.33
2023-01-06T08:38:23.849Z,38.60
2023-01-06T08:39:25.389Z,39.27
2023-01-06T08:40:26.910Z,37.03
2023-01-06T08:41:28.560Z,38.43
2023-01-06T08:42:30.104Z,39.17
2023-01-06T08:43:31.742Z,37.87
2023-01-06T08:44:33.309Z,38.07
2023-01-06T08:45:39.427Z,36.73
2023-01-06T08:46:41.089Z,36.90
2023-01-06T08:47:42.696Z,38.17
2023-01-06T08:48:44.903Z,36.47
2023-01-06T08:49:46.557Z,36.23
2023-01-06T08:50:48.162Z,36.47
2023-01-06T08:51:49.792Z,35.10
2023-01-06T08:52:52.115Z,36.87
2023-01-06T08:53:54.417Z,34.40
2023-01-06T08:54:55.997Z,34.00
2023-01-06T08:55:57.588Z,33.27
2023-01-06T08:56:59.181Z,32.07
2023-01-06T08:58:00.729Z,32.00
2023-01-06T08:59:03.851Z,31.73
2023-01-06T09:00:06.618Z,31.30
2023-01-06T09:01:16.236Z,28.37
2023-01-06T09:02:17.869Z,26.43
2023-01-06T09:03:19.585Z,26.83
2023-01-06T09:04:21.212Z,27.20
2023-01-06T09:05:22.779Z,27.63
2023-01-06T09:06:25.020Z,25.90
2023-01-06T09:07:26.619Z,25.23
2023-01-06T09:08:28.169Z,22.60
2023-01-06T09:09:29.758Z,24.37
2023-01-06T09:10:31.332Z,23.13
2023-01-06T09:11:33.179Z,21.17
2023-01-06T09:12:34.854Z,20.37
2023-01-06T09:13:37.326Z,19.73
2023-01-06T09:14:38.951Z,18.87
2023-01-06T09:15:41.711Z,19.20
2023-01-06T09:16:43.395Z,18.30
2023-01-06T09:17:44.938Z,17.97
2023-01-06T09:18:50.395Z,17.90
2023-01-06T09:19:51.965Z,13.87
2023-01-06T09:20:53.461Z,12.90
2023-01-06T09:21:54.986Z,13.50
2023-01-06T09:22:56.526Z,13.13
2023-01-06T09:23:58.101Z,13.67
2023-01-06T09:24:59.744Z,13.47
2023-01-06T09:26:01.302Z,12.70
2023-01-06T09:27:02.879Z,12.57
2023-01-06T09:28:04.492Z,13.10
2023-01-06T09:29:06.216Z,12.53
2023-01-06T09:30:08.393Z,12.97
2023-01-06T09:31:10.109Z,12.37
2023-01-06T09:32:11.672Z,12.30
2023-01-06T09:33:13.197Z,12.97
2023-01-06T09:34:14.941Z,11.83
2023-01-06T09:35:16.555Z,10.70
2023-01-06T09:36:18.118Z,11.17
2023-01-06T09:37:19.627Z,26.40
2023-01-06T09:38:21.245Z,35.40
2023-01-06T09:39:22.891Z,36.37
2023-01-06T09:40:48.727Z,35.13
2023-01-06T09:42:14.062Z,34.37
2023-01-06T09:43:34.020Z,33.30
2023-01-06T09:44:50.283Z,30.43
2023-01-06T09:45:55.858Z,28.43
2023-01-06T09:47:00.339Z,24.63
2023-01-06T09:48:04.067Z,18.73
2023-01-06T09:49:32.348Z,8.77
2023-01-06T09:50:53.255Z,5.60
2023-01-06T09:51:59.805Z,5.87
2023-01-06T09:53:09.951Z,5.77
2023-01-06T09:54:23.106Z,5.63
2023-01-06T09:55:36.356Z,5.93
2023-01-06T09:56:41.657Z,5.40
2023-01-06T09:57:58.989Z,5.87
2023-01-06T09:59:11.455Z,4.93
2023-01-06T10:00:50.358Z,3.40
2023-01-06T10:01:52.319Z,3.67
2023-01-06T10:02:54.076Z,4.27
2023-01-06T10:03:57.504Z,3.00
2023-01-06T10:04:59.180Z,3.07
2023-01-06T10:06:06.849Z,2.73
2023-01-06T10:07:25.368Z,2.33
2023-01-06T10:09:00.337Z,2.27
2023-01-06T10:10:23.052Z,2.27
2023-01-06T10:11:27.305Z,2.53
2023-01-06T10:12:47.336Z,1.57
2023-01-06T10:14:13.973Z,1.97
2023-01-06T10:15:18.038Z,1.97
2023-01-06T10:16:28.479Z,1.87
2023-01-06T10:17:36.257Z,1.90
2023-01-06T10:18:48.916Z,1.77
2023-01-06T10:20:23.269Z,1.70
2023-01-06T10:21:40.531Z,2.20
2023-01-06T10:23:14.630Z,2.00
2023-01-06T10:24:34.834Z,2.57
2023-01-06T10:25:57.609Z,1.90
2023-01-06T10:27:14.689Z,2.30
2023-01-06T10:28:19.362Z,2.17
2023-01-06T10:29:21.870Z,1.90
2023-01-06T10:30:30.809Z,2.33
2023-01-06T10:31:39.584Z,1.67
2023-01-06T10:32:42.927Z,1.83
2023-01-06T10:33:52.598Z,2.30
2023-01-06T10:34:55.752Z,2.23
2023-01-06T10:35:59.169Z,2.00
2023-01-06T10:37:09.897Z,2.30
2023-01-06T10:38:13.605Z,2.63
2023-01-06T10:39:21.531Z,2.33
2023-01-06T10:40:29.398Z,2.63
2023-01-06T10:41:39.328Z,2.40
2023-01-06T10:42:55.613Z,1.90
2023-01-06T10:43:57.768Z,1.97
2023-01-06T10:44:59.351Z,1.87
2023-01-06T10:46:00.897Z,2.30
2023-01-06T10:47:02.499Z,1.80
2023-01-06T10:48:06.896Z,1.60
2023-01-06T10:49:15.466Z,1.33
2023-01-06T10:50:18.993Z,1.80
2023-01-06T10:51:35.033Z,1.60
2023-01-06T10:52:37.199Z,1.47
2023-01-06T10:53:38.749Z,2.10
2023-01-06T10:54:42.255Z,1.30
2023-01-06T10:55:53.075Z,1.40
2023-01-06T10:57:04.527Z,1.13
2023-01-06T10:58:21.430Z,1.20
2023-01-06T10:59:23.002Z,1.10
2023-01-06T11:00:25.924Z,1.20
2023-01-06T11:01:33.951Z,1.50
2023-01-06T11:02:36.449Z,1.30
2023-01-06T11:03:42.795Z,1.27
2023-01-06T11:04:51.888Z,1.37
2023-01-06T11:06:28.046Z,1.30
2023-01-06T11:07:30.467Z,1.50
2023-01-06T11:08:33.267Z,1.23
2023-01-06T11:09:39.742Z,1.50
2023-01-06T11:10:51.936Z,1.30
2023-01-06T11:11:55.885Z,1.43
2023-01-06T11:13:00.456Z,1.10
2023-01-06T11:14:05.559Z,1.50
2023-01-06T11:15:08.674Z,1.40
2023-01-06T11:16:27.560Z,1.17
2023-01-06T11:17:30.040Z,1.27
2023-01-06T11:18:34.074Z,1.50
2023-01-06T11:19:41.412Z,1.37
2023-01-06T11:20:43.549Z,1.10
2023-01-06T11:21:49.503Z,1.07
2023-01-06T11:22:51.301Z,1.07
2023-01-06T11:24:15.544Z,1.27
2023-01-06T11:25:20.065Z,1.20
2023-01-06T11:26:23.666Z,1.10
2023-01-06T11:27:25.410Z,1.13
2023-01-06T11:28:27.015Z,1.10
2023-01-06T11:29:33.779Z,1.40
2023-01-06T11:30:48.917Z,1.60
2023-01-06T11:31:50.989Z,1.10
2023-01-06T11:32:53.449Z,1.17
2023-01-06T11:33:59.371Z,1.07
2023-01-06T11:35:03.698Z,1.13
2023-01-06T11:36:13.736Z,1.13
2023-01-06T11:37:15.302Z,1.40
2023-01-06T11:38:20.125Z,1.20
2023-01-06T11:39:27.867Z,1.20
2023-01-06T11:40:32.609Z,1.17
2023-01-06T11:41:40.214Z,1.27
2023-01-06T11:43:51.647Z,1.07
2023-01-06T11:44:53.851Z,1.03
2023-01-06T11:46:07.976Z,1.33
2023-01-06T11:47:16.834Z,1.20
2023-01-06T11:48:34.576Z,1.00
2023-01-06T11:49:59.047Z,1.10
2023-01-06T11:51:03.880Z,1.00
2023-01-06T11:52:18.902Z,1.17
2023-01-06T11:53:21.569Z,0.87
2023-01-06T11:54:33.734Z,1.23
2023-01-06T11:55:35.309Z,1.40
2023-01-06T11:56:37.489Z,0.87
2023-01-06T11:57:44.476Z,1.10
2023-01-06T11:58:51.991Z,1.00
2023-01-06T12:00:16.954Z,1.20
2023-01-06T12:01:54.001Z,1.10
2023-01-06T12:03:10.577Z,1.00
2023-01-06T12:04:19.620Z,1.10
2023-01-06T12:05:35.115Z,1.30
2023-01-06T12:06:45.262Z,1.00
2023-01-06T12:07:52.876Z,0.80
2023-01-06T12:09:06.570Z,1.10
2023-01-06T12:10:20.279Z,1.23
2023-01-06T12:11:45.586Z,0.70
2023-01-06T12:12:48.483Z,1.10
2023-01-06T12:14:10.660Z,0.90
2023-01-06T12:15:14.876Z,1.00
2023-01-06T12:16:28.998Z,0.90
2023-01-06T12:17:40.734Z,0.80
2023-01-06T12:18:42.997Z,1.00
2023-01-06T12:19:53.683Z,1.07
2023-01-06T12:20:56.836Z,0.90
2023-01-06T12:21:59.424Z,1.10
2023-01-06T12:23:24.730Z,0.97
2023-01-06T12:24:27.170Z,0.90
2023-01-06T12:25:58.370Z,1.00
2023-01-06T12:27:04.953Z,0.90
2023-01-06T12:28:19.872Z,1.40
2023-01-06T12:29:22.267Z,1.00
2023-01-06T12:30:23.734Z,1.00
2023-01-06T12:31:36.617Z,1.00
2023-01-06T12:32:43.177Z,1.30
2023-01-06T12:33:54.665Z,1.00
2023-01-06T12:35:02.522Z,1.10
2023-01-06T12:36:23.249Z,0.90
2023-01-06T12:37:31.873Z,1.20
2023-01-06T12:38:52.133Z,1.23
2023-01-06T12:39:59.833Z,1.10
2023-01-06T12:41:08.919Z,1.03
2023-01-06T12:42:23.594Z,1.00
2023-01-06T12:43:29.641Z,0.90
2023-01-06T12:44:52.644Z,1.10
2023-01-06T12:46:28.708Z,1.17
2023-01-06T12:47:43.160Z,1.13
2023-01-06T12:49:03.307Z,1.03
2023-01-06T12:50:26.274Z,1.10
2023-01-06T12:51:42.310Z,1.00
2023-01-06T12:53:01.260Z,0.83
2023-01-06T12:54:24.318Z,0.93
2023-01-06T12:55:52.147Z,0.80
2023-01-06T12:57:01.769Z,0.73
2023-01-06T12:58:26.153Z,0.80
2023-01-06T12:59:27.646Z,0.80
2023-01-06T13:00:41.315Z,1.10
2023-01-06T13:01:51.044Z,0.90
2023-01-06T13:03:40.288Z,0.90
2023-01-06T13:04:59.939Z,0.80
2023-01-06T13:06:20.307Z,0.60
2023-01-06T13:07:48.351Z,0.60
2023-01-06T13:08:56.231Z,0.83
2023-01-06T13:10:26.666Z,0.80
2023-01-06T13:11:43.536Z,0.80
2023-01-06T13:12:53.980Z,0.90
2023-01-06T13:14:15.795Z,0.90
2023-01-06T13:15:25.535Z,0.90
2023-01-06T13:16:38.315Z,1.20
2023-01-06T13:17:50.565Z,0.90
2023-01-06T13:19:10.366Z,0.87
2023-01-06T13:20:23.163Z,0.90
2023-01-06T13:21:25.350Z,0.83
2023-01-06T13:22:55.726Z,0.70
2023-01-06T13:24:20.870Z,0.83
2023-01-06T13:25:41.076Z,1.00
2023-01-06T13:26:57.904Z,0.90
2023-01-06T13:28:10.012Z,1.00
2023-01-06T13:29:31.275Z,1.10
2023-01-06T13:30:41.823Z,1.57
2023-01-06T13:32:11.010Z,1.20
2023-01-06T13:33:31.218Z,1.00
2023-01-06T13:35:10.123Z,1.33
2023-01-06T13:36:39.075Z,1.30
2023-01-06T13:38:05.426Z,1.23
2023-01-06T13:39:24.148Z,1.37
2023-01-06T13:40:29.628Z,1.27
2023-01-06T13:41:35.377Z,1.00
2023-01-06T13:43:06.025Z,1.43
2023-01-06T13:44:25.828Z,1.10
2023-01-06T13:45:40.808Z,1.03
2023-01-06T13:46:42.871Z,1.23
2023-01-06T13:47:46.759Z,1.10
2023-01-06T13:48:55.555Z,1.10
2023-01-06T13:49:58.486Z,1.30
2023-01-06T13:51:04.587Z,1.23
2023-01-06T13:52:14.880Z,1.00
2023-01-06T13:53:20.084Z,1.33
2023-01-06T13:54:39.868Z,0.93
2023-01-06T13:55:41.513Z,1.10
2023-01-06T13:56:43.130Z,1.20
2023-01-06T13:57:44.861Z,1.17
2023-01-06T13:58:47.101Z,0.90
2023-01-06T13:59:48.724Z,1.30
2023-01-06T14:01:11.000Z,1.40
2023-01-06T14:02:35.670Z,1.20
2023-01-06T14:03:41.904Z,1.00
2023-01-06T14:04:45.439Z,1.20
2023-01-06T14:05:46.891Z,1.07
2023-01-06T14:06:49.325Z,1.13
2023-01-06T14:07:53.821Z,1.17
2023-01-06T14:08:58.865Z,1.00
2023-01-06T14:10:01.549Z,0.90
2023-01-06T14:11:20.381Z,0.80
2023-01-06T14:12:24.039Z,1.00
2023-01-06T14:13:30.495Z,0.87
2023-01-06T14:14:38.520Z,1.07
2023-01-06T14:15:55.351Z,1.00
2023-01-06T14:16:58.127Z,1.27
2023-01-06T14:18:03.688Z,1.40
2023-01-06T14:19:08.618Z,1.23
2023-01-06T14:20:31.219Z,1.23
2023-01-06T14:21:33.506Z,1.40
2023-01-06T14:22:35.299Z,1.20
2023-01-06T14:23:37.264Z,1.30
2023-01-06T14:24:43.659Z,1.10
2023-01-06T14:25:50.899Z,1.20
2023-01-06T14:27:01.014Z,1.17
2023-01-06T14:28:02.626Z,1.23
2023-01-06T14:29:41.392Z,1.30